Sneads Ferry, North Carolina
Current Conditions -  °F | °C
As of 11:56 PM on Tuesday 21 Oct 2014 (Local Time) from KNCA Reporting Station
Broken Clouds Broken Clouds  
Wind Chill: 62°   Ceiling: 9500
Heat Index: 62°   Visibility: 10mi
Dew Point: 55°   Wind: 16mph
Humidity: 78%   Direction: 320°NW
Pressure: 29.86"   Gusts: NA
Location:  34.55°N, 77.4°W
Report Text: KNCA 220356Z AUTO 32014KT 10SM SCT070 BKN095 17/13 A2986 RMK AO2 SLP114 T01670128
Loading
Personal Weather Stations






























Interactive Weather Map
Tropical Storm Tracking
New forecast layout! Learn more

10-Day Weather Forecast

Advertisements
Track Severe Weather on mobile